createdAt,value
2022-11-05T02:52:37.652Z,11.27
2022-11-05T02:57:30.598Z,11.23
2022-11-05T03:02:22.360Z,10.80
2022-11-05T03:07:38.100Z,10.77
2022-11-05T03:12:49.037Z,12.17
2022-11-05T03:18:14.772Z,9.77
2022-11-05T03:23:19.747Z,10.27
2022-11-05T03:28:13.908Z,11.23
2022-11-05T03:33:17.062Z,12.73
2022-11-05T03:38:15.464Z,11.77
2022-11-05T03:43:09.091Z,10.93
2022-11-05T03:48:03.217Z,10.53
2022-11-05T03:53:04.286Z,12.17
2022-11-05T03:57:57.794Z,11.63
2022-11-05T04:02:50.498Z,13.80
2022-11-05T04:08:03.581Z,13.47
2022-11-05T04:13:14.106Z,10.50
2022-11-05T04:18:05.766Z,11.83
2022-11-05T04:23:21.157Z,10.83
2022-11-05T04:28:13.506Z,9.50
2022-11-05T04:33:05.064Z,10.20
2022-11-05T04:37:56.650Z,10.07
2022-11-05T04:42:49.308Z,10.03
2022-11-05T04:47:40.882Z,11.50
2022-11-05T04:52:32.439Z,9.97
2022-11-05T04:57:24.019Z,10.17
2022-11-05T05:02:17.232Z,10.77
2022-11-05T05:07:08.824Z,11.50
2022-11-05T05:12:01.341Z,11.77
2022-11-05T05:16:52.907Z,10.67
2022-11-05T05:21:44.431Z,12.00
2022-11-05T05:26:37.653Z,10.83
2022-11-05T05:31:30.648Z,11.83
2022-11-05T05:36:23.333Z,12.70
2022-11-05T05:41:14.974Z,13.37
2022-11-05T05:46:09.473Z,15.63
2022-11-05T05:51:06.374Z,13.27
2022-11-05T05:55:58.613Z,15.90
2022-11-05T06:00:50.220Z,18.53
2022-11-05T06:05:41.776Z,13.57
2022-11-05T06:10:34.648Z,14.73
2022-11-05T06:15:28.466Z,13.33
2022-11-05T06:20:23.450Z,14.90
2022-11-05T06:25:15.069Z,16.83
2022-11-05T06:30:10.273Z,12.20
2022-11-05T06:35:01.811Z,12.20
2022-11-05T06:39:53.757Z,14.00
2022-11-05T06:44:45.404Z,15.93
2022-11-05T06:49:37.652Z,16.07
2022-11-05T06:54:29.302Z,14.43
2022-11-05T06:59:21.016Z,13.30
2022-11-05T07:04:12.724Z,12.97
2022-11-05T07:09:04.436Z,13.50
2022-11-05T07:13:55.981Z,13.73
2022-11-05T07:18:47.582Z,15.40
2022-11-05T07:23:39.112Z,13.40
2022-11-05T07:28:31.109Z,15.17
2022-11-05T07:33:22.674Z,13.03
2022-11-05T07:38:15.205Z,13.03
2022-11-05T07:43:08.396Z,10.83
2022-11-05T07:48:03.864Z,11.93
2022-11-05T07:53:06.909Z,8.97
2022-11-05T07:57:58.916Z,9.87
2022-11-05T08:03:07.696Z,9.23
2022-11-05T08:08:00.608Z,8.70
2022-11-05T08:12:53.473Z,8.63
2022-11-05T08:17:45.670Z,7.80
2022-11-05T08:22:38.100Z,9.37
2022-11-05T08:27:29.823Z,7.63
2022-11-05T08:32:21.539Z,9.07
2022-11-05T08:37:13.119Z,7.63
2022-11-05T08:42:04.764Z,9.17
2022-11-05T08:46:56.681Z,9.93
2022-11-05T08:51:48.422Z,10.40
2022-11-05T08:56:40.157Z,7.57
2022-11-05T09:01:33.588Z,11.80
2022-11-05T09:06:25.411Z,7.93
2022-11-05T09:11:18.159Z,6.53
2022-11-05T09:16:22.919Z,7.30
2022-11-05T09:21:14.870Z,6.63
2022-11-05T09:26:06.831Z,7.00
2022-11-05T09:30:58.629Z,8.80
2022-11-05T09:35:51.896Z,7.40
2022-11-05T09:40:59.678Z,5.93
2022-11-05T09:45:57.796Z,8.43
2022-11-05T09:50:52.338Z,8.40
2022-11-05T09:55:48.913Z,8.30
2022-11-05T10:00:41.300Z,10.33
2022-11-05T10:05:34.985Z,5.83
2022-11-05T10:10:43.253Z,6.50
2022-11-05T10:15:41.083Z,7.67
2022-11-05T10:20:38.021Z,6.13
2022-11-05T10:25:35.718Z,6.13
2022-11-05T10:30:28.805Z,7.10
2022-11-05T10:35:22.615Z,7.80
2022-11-05T10:40:39.207Z,5.37
2022-11-05T10:46:03.438Z,4.87
2022-11-05T10:50:55.206Z,4.37
2022-11-05T10:55:49.543Z,7.30
2022-11-05T11:01:00.242Z,6.37
2022-11-05T11:11:09.875Z,4.97
2022-11-05T11:16:21.780Z,5.40
2022-11-05T11:21:19.528Z,6.63
2022-11-05T11:26:13.132Z,6.33
2022-11-05T11:31:07.760Z,5.90
2022-11-05T11:36:00.159Z,5.10
2022-11-05T11:41:00.997Z,4.20
2022-11-05T11:45:56.520Z,5.20
2022-11-05T11:50:50.419Z,7.77
2022-11-05T11:55:56.241Z,5.13
2022-11-05T12:00:56.436Z,6.87
2022-11-05T12:06:08.511Z,7.43
2022-11-05T12:11:24.621Z,5.87
2022-11-05T12:16:29.714Z,6.18
2022-11-05T12:21:53.435Z,4.93
2022-11-05T12:27:11.386Z,5.18
2022-11-05T12:32:21.998Z,3.30
2022-11-05T12:37:17.026Z,3.33
2022-11-05T12:42:24.849Z,3.53
2022-11-05T12:47:40.310Z,4.17
2022-11-05T12:53:02.074Z,4.87
2022-11-05T12:57:57.480Z,4.90
2022-11-05T13:03:14.646Z,3.80
2022-11-05T13:08:14.697Z,4.97
2022-11-05T13:13:29.363Z,4.90
2022-11-05T13:18:30.511Z,3.70
2022-11-05T13:23:24.172Z,2.93
2022-11-05T13:28:35.148Z,3.20
2022-11-05T13:33:33.778Z,4.10
2022-11-05T13:38:45.211Z,5.23
2022-11-05T13:43:58.514Z,3.07
2022-11-05T13:49:18.759Z,2.93
2022-11-05T13:54:53.051Z,3.30
2022-11-05T13:59:56.262Z,2.80
2022-11-05T14:04:58.016Z,5.67
2022-11-05T14:09:59.202Z,2.67
2022-11-05T14:14:58.899Z,5.23
2022-11-05T14:20:04.417Z,2.97
2022-11-05T14:24:56.114Z,3.93
2022-11-05T14:29:49.909Z,3.63
2022-11-05T14:34:43.046Z,4.97
2022-11-05T14:39:34.763Z,3.83
2022-11-05T14:44:28.056Z,4.17
2022-11-05T14:49:25.689Z,4.47
2022-11-05T14:54:29.498Z,7.60
2022-11-05T14:59:24.162Z,3.80
2022-11-05T15:04:29.704Z,4.90
2022-11-05T15:09:29.044Z,4.07
2022-11-05T15:14:28.721Z,3.97
2022-11-05T15:19:25.037Z,6.27
2022-11-05T15:24:19.494Z,4.87
2022-11-05T15:29:22.271Z,4.80
2022-11-05T15:34:30.089Z,4.60
2022-11-05T15:39:42.039Z,2.40
2022-11-05T15:44:40.097Z,3.30
2022-11-05T15:49:32.317Z,4.93
2022-11-05T15:54:30.152Z,4.83
2022-11-05T15:59:25.478Z,3.33
2022-11-05T16:04:25.957Z,5.07
2022-11-05T16:09:27.093Z,2.73
2022-11-05T16:14:20.275Z,3.37
2022-11-05T16:19:46.372Z,3.77
2022-11-05T16:24:38.505Z,3.07
2022-11-05T16:48:33.967Z,3.03
2022-11-05T16:53:26.874Z,5.13
2022-11-05T17:24:24.921Z,5.60
2022-11-05T17:29:16.862Z,6.77
2022-11-05T17:34:09.911Z,4.93
2022-11-05T17:39:01.668Z,5.10
2022-11-05T17:43:55.497Z,5.93
2022-11-05T17:48:47.469Z,5.27
2022-11-05T17:53:39.561Z,6.57
2022-11-05T17:58:31.192Z,5.70
2022-11-05T18:03:22.962Z,6.30
2022-11-05T18:08:14.845Z,7.00
2022-11-05T18:13:07.988Z,6.63
2022-11-05T18:17:59.812Z,5.70
2022-11-05T18:22:52.296Z,6.80
2022-11-05T18:27:44.456Z,6.77
2022-11-05T18:32:38.341Z,4.97
2022-11-05T18:37:30.188Z,7.67
2022-11-05T18:42:22.189Z,8.40
2022-11-05T18:47:14.069Z,8.20
2022-11-05T18:52:06.980Z,8.93
2022-11-05T18:56:58.754Z,6.67
2022-11-05T19:01:51.093Z,8.10
2022-11-05T19:06:43.021Z,7.40
2022-11-05T19:11:36.536Z,5.90
2022-11-05T19:16:29.802Z,9.10
2022-11-05T19:21:25.099Z,6.77
2022-11-05T19:26:28.431Z,7.13
2022-11-05T19:31:23.719Z,7.07
2022-11-05T19:36:18.028Z,9.40
2022-11-05T19:41:15.191Z,8.43
2022-11-05T19:46:08.010Z,9.67
2022-11-05T19:51:00.357Z,8.67
2022-11-05T19:55:52.098Z,8.77
2022-11-05T20:00:44.144Z,11.27
2022-11-05T20:05:36.001Z,8.83
2022-11-05T20:10:28.228Z,9.23
2022-11-05T20:15:20.288Z,8.97
2022-11-05T20:20:13.638Z,9.33
2022-11-05T20:25:06.149Z,9.23
2022-11-05T20:29:58.034Z,9.80
2022-11-05T20:34:49.710Z,8.93
2022-11-05T20:39:41.947Z,9.37
2022-11-05T20:44:33.789Z,7.40
2022-11-05T20:49:28.092Z,9.70
2022-11-05T20:54:19.811Z,7.47
2022-11-05T20:59:11.510Z,10.03
2022-11-05T21:04:04.891Z,6.97
2022-11-05T21:08:57.138Z,8.37
2022-11-05T21:13:49.249Z,8.97
2022-11-05T21:18:41.058Z,7.03
2022-11-05T21:23:32.806Z,10.37
2022-11-05T21:28:25.788Z,7.20
2022-11-05T21:33:18.655Z,6.67
2022-11-05T21:38:11.941Z,8.47
2022-11-05T21:43:04.164Z,8.30
2022-11-05T21:47:56.704Z,8.50
2022-11-05T21:53:08.766Z,6.63
2022-11-05T21:58:28.245Z,11.20
2022-11-05T22:03:20.062Z,9.30
2022-11-05T22:08:12.050Z,8.20
2022-11-05T22:13:04.025Z,9.30
2022-11-05T22:17:56.745Z,7.20
2022-11-05T22:22:48.639Z,8.30
2022-11-05T22:27:40.390Z,8.03
2022-11-05T22:32:32.110Z,11.63
2022-11-05T22:37:24.017Z,7.93
2022-11-05T22:42:15.856Z,6.63
2022-11-05T22:47:07.710Z,7.77
2022-11-05T22:51:59.576Z,6.63
